Budweis, Czech Republic
Current Conditions -  °F | °C
As of 11:50 PM on Saturday 20 Dec 2014 (Local Time) from LOWL Reporting Station
Broken Clouds Broken Clouds  
Wind Chill: 31°   Ceiling: 6000
Heat Index: 41°   Visibility: 6mi
Dew Point: 34°   Wind: 25mph
Humidity: 76%   Direction: 270°W
Pressure: 30.18"   Gusts: 37mph
Location:  48.99°N, 14.56°E
Report Text: LOWL 202150Z 27022G32KT 9999 FEW018 SCT043 BKN060 05/01 Q1022 TEMPO SHRA
Loading
Personal Weather Stations






























Interactive Weather Map New forecast layout! Learn more

10-Day Weather Forecast

Advertisements
Track Severe Weather on mobile